sensor_id;sensor_type;location;lat;lon;timestamp;pressure;altitude;pressure_sealevel;temperature;humidity
47592;BME280;33317;33.356;-117.184;2022-08-01T00:02:00;99225.34;;;29.53;23.34
47592;BME280;33317;33.356;-117.184;2022-08-01T00:04:29;99228.24;;;28.79;24.18
47592;BME280;33317;33.356;-117.184;2022-08-01T00:06:58;99229.21;;;28.53;24.48
47592;BME280;33317;33.356;-117.184;2022-08-01T00:09:27;99227.96;;;29.06;23.73
47592;BME280;33317;33.356;-117.184;2022-08-01T00:11:55;99228.93;;;29.41;22.82
47592;BME280;33317;33.356;-117.184;2022-08-01T00:14:24;99226.65;;;29.75;22.21
47592;BME280;33317;33.356;-117.184;2022-08-01T00:16:52;99228.63;;;29.95;22.54
47592;BME280;33317;33.356;-117.184;2022-08-01T00:19:21;99221.48;;;29.23;23.19
47592;BME280;33317;33.356;-117.184;2022-08-01T00:21:50;99221.18;;;29.13;23.16
47592;BME280;33317;33.356;-117.184;2022-08-01T00:24:18;99218.58;;;28.74;23.43
47592;BME280;33317;33.356;-117.184;2022-08-01T00:26:46;99218.07;;;28.13;24.17
47592;BME280;33317;33.356;-117.184;2022-08-01T00:29:15;99215.68;;;27.64;24.50
47592;BME280;33317;33.356;-117.184;2022-08-01T00:31:43;99212.45;;;28.60;24.08
47592;BME280;33317;33.356;-117.184;2022-08-01T00:34:12;99208.92;;;29.16;23.01
47592;BME280;33317;33.356;-117.184;2022-08-01T00:36:40;99202.62;;;29.56;22.69
47592;BME280;33317;33.356;-117.184;2022-08-01T00:39:09;99194.93;;;29.08;23.47
47592;BME280;33317;33.356;-117.184;2022-08-01T00:41:37;99191.81;;;28.39;23.76
47592;BME280;33317;33.356;-117.184;2022-08-01T00:44:06;99189.13;;;28.13;24.20
47592;BME280;33317;33.356;-117.184;2022-08-01T00:46:35;99191.87;;;27.83;24.42
47592;BME280;33317;33.356;-117.184;2022-08-01T00:49:06;99197.90;;;28.37;23.39
47592;BME280;33317;33.356;-117.184;2022-08-01T00:51:34;99201.01;;;28.90;22.98
47592;BME280;33317;33.356;-117.184;2022-08-01T00:54:03;99201.11;;;28.18;24.05
47592;BME280;33317;33.356;-117.184;2022-08-01T00:56:32;99204.67;;;28.63;22.98
47592;BME280;33317;33.356;-117.184;2022-08-01T00:59:05;99204.28;;;29.57;22.52
47592;BME280;33317;33.356;-117.184;2022-08-01T01:01:34;99203.00;;;29.66;22.52
47592;BME280;33317;33.356;-117.184;2022-08-01T01:04:08;99197.98;;;29.51;22.53
47592;BME280;33317;33.356;-117.184;2022-08-01T01:06:44;99194.19;;;29.67;22.50
47592;BME280;33317;33.356;-117.184;2022-08-01T01:09:33;99197.71;;;29.38;22.52
47592;BME280;33317;33.356;-117.184;2022-08-01T01:12:15;99198.27;;;29.07;22.67
47592;BME280;33317;33.356;-117.184;2022-08-01T01:14:54;99200.01;;;29.35;22.37
47592;BME280;33317;33.356;-117.184;2022-08-01T01:17:32;99201.16;;;29.03;22.30
47592;BME280;33317;33.356;-117.184;2022-08-01T01:20:03;99200.21;;;29.42;22.21
47592;BME280;33317;33.356;-117.184;2022-08-01T01:22:50;99206.03;;;29.09;22.23
47592;BME280;33317;33.356;-117.184;2022-08-01T01:25:49;99208.32;;;28.67;22.52
47592;BME280;33317;33.356;-117.184;2022-08-01T01:28:34;99213.81;;;28.94;22.62
47592;BME280;33317;33.356;-117.184;2022-08-01T01:31:05;99218.48;;;28.43;23.68
47592;BME280;33317;33.356;-117.184;2022-08-01T01:33:37;99225.88;;;27.19;24.30
47592;BME280;33317;33.356;-117.184;2022-08-01T01:36:09;99228.46;;;27.45;24.17
47592;BME280;33317;33.356;-117.184;2022-08-01T01:38:44;99233.97;;;27.26;24.06
47592;BME280;33317;33.356;-117.184;2022-08-01T01:41:15;99237.30;;;27.08;24.04
47592;BME280;33317;33.356;-117.184;2022-08-01T01:43:46;99242.48;;;26.03;25.19
47592;BME280;33317;33.356;-117.184;2022-08-01T01:46:18;99247.95;;;27.47;24.23
47592;BME280;33317;33.356;-117.184;2022-08-01T01:48:47;99246.54;;;28.32;23.48
47592;BME280;33317;33.356;-117.184;2022-08-01T01:51:17;99247.74;;;28.14;23.73
47592;BME280;33317;33.356;-117.184;2022-08-01T01:53:48;99251.46;;;27.54;24.01
47592;BME280;33317;33.356;-117.184;2022-08-01T01:56:18;99253.31;;;26.99;24.73
47592;BME280;33317;33.356;-117.184;2022-08-01T01:58:50;99256.98;;;26.80;24.73
47592;BME280;33317;33.356;-117.184;2022-08-01T02:01:20;99261.07;;;26.45;24.90
47592;BME280;33317;33.356;-117.184;2022-08-01T02:03:50;99261.38;;;26.22;25.00
47592;BME280;33317;33.356;-117.184;2022-08-01T02:06:21;99259.12;;;26.44;24.75
47592;BME280;33317;33.356;-117.184;2022-08-01T02:08:50;99257.99;;;26.96;24.22
47592;BME280;33317;33.356;-117.184;2022-08-01T02:11:20;99260.09;;;27.08;23.96
47592;BME280;33317;33.356;-117.184;2022-08-01T02:13:53;99256.68;;;27.11;24.15
47592;BME280;33317;33.356;-117.184;2022-08-01T02:16:26;99254.38;;;26.58;24.62
47592;BME280;33317;33.356;-117.184;2022-08-01T02:18:57;99252.78;;;26.00;25.00
47592;BME280;33317;33.356;-117.184;2022-08-01T02:21:30;99258.52;;;26.60;24.63
47592;BME280;33317;33.356;-117.184;2022-08-01T02:24:05;99258.92;;;26.40;24.69
47592;BME280;33317;33.356;-117.184;2022-08-01T02:26:36;99263.76;;;26.75;24.24
47592;BME280;33317;33.356;-117.184;2022-08-01T02:29:09;99271.14;;;27.00;24.18
47592;BME280;33317;33.356;-117.184;2022-08-01T02:31:40;99275.41;;;27.34;23.95
47592;BME280;33317;33.356;-117.184;2022-08-01T02:34:10;99277.84;;;27.17;24.46
47592;BME280;33317;33.356;-117.184;2022-08-01T02:36:42;99275.56;;;27.22;25.04
47592;BME280;33317;33.356;-117.184;2022-08-01T02:39:16;99269.86;;;27.77;24.04
47592;BME280;33317;33.356;-117.184;2022-08-01T02:41:49;99271.75;;;28.03;24.16
47592;BME280;33317;33.356;-117.184;2022-08-01T02:44:25;99273.25;;;28.05;23.66
47592;BME280;33317;33.356;-117.184;2022-08-01T02:46:59;99272.90;;;27.96;23.38
47592;BME280;33317;33.356;-117.184;2022-08-01T02:49:31;99279.80;;;27.88;23.46
47592;BME280;33317;33.356;-117.184;2022-08-01T02:52:03;99285.77;;;28.39;23.21
47592;BME280;33317;33.356;-117.184;2022-08-01T02:54:34;99290.23;;;28.34;23.32
47592;BME280;33317;33.356;-117.184;2022-08-01T02:57:04;99292.46;;;27.82;23.48
47592;BME280;33317;33.356;-117.184;2022-08-01T02:59:37;99292.93;;;27.73;23.57
47592;BME280;33317;33.356;-117.184;2022-08-01T03:02:07;99293.79;;;27.79;23.51
47592;BME280;33317;33.356;-117.184;2022-08-01T03:04:39;99289.41;;;28.30;23.09
47592;BME280;33317;33.356;-117.184;2022-08-01T03:07:10;99284.11;;;28.56;22.86
47592;BME280;33317;33.356;-117.184;2022-08-01T03:09:45;99281.20;;;28.48;22.96
47592;BME280;33317;33.356;-117.184;2022-08-01T03:12:17;99287.19;;;28.28;22.96
47592;BME280;33317;33.356;-117.184;2022-08-01T03:14:48;99295.58;;;28.16;23.24
47592;BME280;33317;33.356;-117.184;2022-08-01T03:17:21;99303.88;;;27.70;23.77
47592;BME280;33317;33.356;-117.184;2022-08-01T03:19:53;99304.52;;;27.58;23.51
47592;BME280;33317;33.356;-117.184;2022-08-01T03:22:29;99299.96;;;27.13;24.33
47592;BME280;33317;33.356;-117.184;2022-08-01T03:25:00;99297.83;;;27.69;23.76
47592;BME280;33317;33.356;-117.184;2022-08-01T03:27:34;99294.40;;;28.40;23.18
47592;BME280;33317;33.356;-117.184;2022-08-01T03:30:13;99295.50;;;28.41;23.16
47592;BME280;33317;33.356;-117.184;2022-08-01T03:32:43;99298.92;;;28.54;23.07
47592;BME280;33317;33.356;-117.184;2022-08-01T03:35:12;99298.70;;;28.30;23.07
47592;BME280;33317;33.356;-117.184;2022-08-01T03:37:44;99300.98;;;28.45;22.90
47592;BME280;33317;33.356;-117.184;2022-08-01T03:40:20;99309.55;;;28.05;23.37
47592;BME280;33317;33.356;-117.184;2022-08-01T03:42:56;99317.76;;;27.76;23.40
47592;BME280;33317;33.356;-117.184;2022-08-01T03:45:30;99314.12;;;27.47;23.41
47592;BME280;33317;33.356;-117.184;2022-08-01T03:48:10;99313.26;;;27.60;23.71
47592;BME280;33317;33.356;-117.184;2022-08-01T03:50:42;99314.76;;;27.93;23.20
47592;BME280;33317;33.356;-117.184;2022-08-01T03:53:15;99310.52;;;28.63;23.15
47592;BME280;33317;33.356;-117.184;2022-08-01T03:55:50;99307.58;;;28.31;22.99
47592;BME280;33317;33.356;-117.184;2022-08-01T03:58:21;99308.08;;;27.73;23.19
47592;BME280;33317;33.356;-117.184;2022-08-01T04:00:51;99313.76;;;27.68;23.19
47592;BME280;33317;33.356;-117.184;2022-08-01T04:03:22;99319.20;;;27.54;23.52
47592;BME280;33317;33.356;-117.184;2022-08-01T04:05:57;99315.73;;;27.11;23.82
47592;BME280;33317;33.356;-117.184;2022-08-01T04:08:35;99321.27;;;27.49;23.99
47592;BME280;33317;33.356;-117.184;2022-08-01T04:11:05;99321.71;;;27.73;23.31
47592;BME280;33317;33.356;-117.184;2022-08-01T04:13:35;99320.30;;;28.24;23.01
47592;BME280;33317;33.356;-117.184;2022-08-01T04:16:04;99326.11;;;28.60;22.71
47592;BME280;33317;33.356;-117.184;2022-08-01T04:18:34;99329.09;;;28.68;22.84
47592;BME280;33317;33.356;-117.184;2022-08-01T04:21:03;99332.73;;;28.21;23.03
47592;BME280;33317;33.356;-117.184;2022-08-01T04:23:34;99333.23;;;27.97;23.02
47592;BME280;33317;33.356;-117.184;2022-08-01T04:26:05;99344.46;;;27.80;23.33
47592;BME280;33317;33.356;-117.184;2022-08-01T04:28:35;99351.12;;;27.93;23.75
47592;BME280;33317;33.356;-117.184;2022-08-01T04:31:07;99355.03;;;27.95;23.23
47592;BME280;33317;33.356;-117.184;2022-08-01T04:33:44;99354.64;;;28.32;22.76
47592;BME280;33317;33.356;-117.184;2022-08-01T04:36:23;99359.06;;;28.87;22.58
47592;BME280;33317;33.356;-117.184;2022-08-01T04:39:00;99364.62;;;28.15;23.28
47592;BME280;33317;33.356;-117.184;2022-08-01T04:41:32;99374.20;;;28.08;23.08
47592;BME280;33317;33.356;-117.184;2022-08-01T04:44:15;99384.21;;;28.19;23.14
47592;BME280;33317;33.356;-117.184;2022-08-01T04:46:44;99384.73;;;27.73;23.67
47592;BME280;33317;33.356;-117.184;2022-08-01T04:49:14;99386.44;;;28.15;23.39
47592;BME280;33317;33.356;-117.184;2022-08-01T04:51:54;99390.45;;;28.56;23.02
47592;BME280;33317;33.356;-117.184;2022-08-01T04:54:26;99403.85;;;28.46;23.03
47592;BME280;33317;33.356;-117.184;2022-08-01T04:57:00;99415.00;;;28.10;23.24
47592;BME280;33317;33.356;-117.184;2022-08-01T04:59:31;99419.24;;;27.85;23.65
47592;BME280;33317;33.356;-117.184;2022-08-01T05:01:59;99417.26;;;28.16;23.42
47592;BME280;33317;33.356;-117.184;2022-08-01T05:04:30;99414.14;;;28.54;23.09
47592;BME280;33317;33.356;-117.184;2022-08-01T05:06:58;99415.23;;;28.63;22.92
47592;BME280;33317;33.356;-117.184;2022-08-01T05:09:26;99407.70;;;28.65;22.80
47592;BME280;33317;33.356;-117.184;2022-08-01T05:11:54;99405.84;;;29.28;22.74
47592;BME280;33317;33.356;-117.184;2022-08-01T05:14:23;99405.00;;;29.20;22.73
47592;BME280;33317;33.356;-117.184;2022-08-01T05:16:52;99408.49;;;29.10;22.58
47592;BME280;33317;33.356;-117.184;2022-08-01T05:19:21;99409.82;;;29.22;22.67
47592;BME280;33317;33.356;-117.184;2022-08-01T05:21:50;99406.33;;;29.33;22.62
47592;BME280;33317;33.356;-117.184;2022-08-01T05:24:18;99405.69;;;29.43;22.56
47592;BME280;33317;33.356;-117.184;2022-08-01T05:26:47;99407.97;;;29.47;22.52
47592;BME280;33317;33.356;-117.184;2022-08-01T05:29:15;99409.35;;;29.54;22.58
47592;BME280;33317;33.356;-117.184;2022-08-01T05:31:43;99411.22;;;29.80;22.55
47592;BME280;33317;33.356;-117.184;2022-08-01T05:34:12;99409.20;;;29.84;22.58
47592;BME280;33317;33.356;-117.184;2022-08-01T05:36:40;99411.32;;;29.37;22.66
47592;BME280;33317;33.356;-117.184;2022-08-01T05:39:10;99415.22;;;29.66;22.72
47592;BME280;33317;33.356;-117.184;2022-08-01T05:41:41;99417.19;;;29.70;22.71
47592;BME280;33317;33.356;-117.184;2022-08-01T05:44:09;99416.27;;;29.74;22.78
47592;BME280;33317;33.356;-117.184;2022-08-01T05:46:37;99416.17;;;29.75;22.81
47592;BME280;33317;33.356;-117.184;2022-08-01T05:49:06;99415.07;;;29.77;22.84
47592;BME280;33317;33.356;-117.184;2022-08-01T05:51:35;99415.32;;;29.79;22.90
47592;BME280;33317;33.356;-117.184;2022-08-01T05:54:05;99424.06;;;29.81;22.92
47592;BME280;33317;33.356;-117.184;2022-08-01T05:56:39;99429.31;;;29.85;22.97
47592;BME280;33317;33.356;-117.184;2022-08-01T05:59:08;99425.32;;;29.61;22.98
47592;BME280;33317;33.356;-117.184;2022-08-01T06:01:36;99425.59;;;29.91;22.99
47592;BME280;33317;33.356;-117.184;2022-08-01T06:04:06;99427.92;;;29.91;23.07
47592;BME280;33317;33.356;-117.184;2022-08-01T06:07:03;99428.50;;;30.15;23.08
47592;BME280;33317;33.356;-117.184;2022-08-01T06:09:31;99429.80;;;29.98;23.19
47592;BME280;33317;33.356;-117.184;2022-08-01T06:11:59;99435.82;;;29.98;23.21
47592;BME280;33317;33.356;-117.184;2022-08-01T06:14:28;99442.27;;;29.98;23.25
47592;BME280;33317;33.356;-117.184;2022-08-01T06:16:56;99439.42;;;29.99;23.34
47592;BME280;33317;33.356;-117.184;2022-08-01T06:19:25;99433.06;;;29.74;23.33
47592;BME280;33317;33.356;-117.184;2022-08-01T06:21:54;99437.17;;;29.74;23.38
47592;BME280;33317;33.356;-117.184;2022-08-01T06:24:22;99439.41;;;30.01;23.46
47592;BME280;33317;33.356;-117.184;2022-08-01T06:26:52;99445.24;;;29.75;23.57
47592;BME280;33317;33.356;-117.184;2022-08-01T06:29:22;99449.91;;;29.76;23.60
47592;BME280;33317;33.356;-117.184;2022-08-01T06:31:51;99457.18;;;29.77;23.59
47592;BME280;33317;33.356;-117.184;2022-08-01T06:34:19;99455.20;;;29.77;23.66
47592;BME280;33317;33.356;-117.184;2022-08-01T06:36:48;99453.58;;;30.06;23.67
47592;BME280;33317;33.356;-117.184;2022-08-01T06:39:16;99457.32;;;29.80;23.66
47592;BME280;33317;33.356;-117.184;2022-08-01T06:41:45;99456.06;;;29.80;23.69
47592;BME280;33317;33.356;-117.184;2022-08-01T06:44:13;99452.60;;;30.06;23.71
47592;BME280;33317;33.356;-117.184;2022-08-01T06:46:42;99450.66;;;29.80;23.75
47592;BME280;33317;33.356;-117.184;2022-08-01T06:49:10;99449.46;;;29.80;23.78
47592;BME280;33317;33.356;-117.184;2022-08-01T06:51:38;99439.63;;;30.08;23.81
47592;BME280;33317;33.356;-117.184;2022-08-01T06:54:07;99435.49;;;30.06;23.80
47592;BME280;33317;33.356;-117.184;2022-08-01T06:56:36;99443.61;;;30.04;23.91
47592;BME280;33317;33.356;-117.184;2022-08-01T06:59:03;99442.83;;;29.77;24.01
47592;BME280;33317;33.356;-117.184;2022-08-01T07:01:32;99435.34;;;29.83;23.87
47592;BME280;33317;33.356;-117.184;2022-08-01T07:04:01;99430.19;;;29.85;23.92
47592;BME280;33317;33.356;-117.184;2022-08-01T07:06:30;99424.50;;;29.80;24.03
47592;BME280;33317;33.356;-117.184;2022-08-01T07:08:58;99425.51;;;30.04;24.12
47592;BME280;33317;33.356;-117.184;2022-08-01T07:11:26;99423.77;;;29.75;24.16
47592;BME280;33317;33.356;-117.184;2022-08-01T07:13:55;99422.07;;;30.00;24.18
47592;BME280;33317;33.356;-117.184;2022-08-01T07:16:28;99423.39;;;29.97;24.29
47592;BME280;33317;33.356;-117.184;2022-08-01T07:18:57;99423.71;;;29.96;24.24
47592;BME280;33317;33.356;-117.184;2022-08-01T07:21:26;99423.38;;;29.68;24.32
47592;BME280;33317;33.356;-117.184;2022-08-01T07:23:54;99422.30;;;29.67;24.36
47592;BME280;33317;33.356;-117.184;2022-08-01T07:26:22;99419.31;;;29.91;24.34
47592;BME280;33317;33.356;-117.184;2022-08-01T07:28:51;99414.16;;;29.63;24.38
47592;BME280;33317;33.356;-117.184;2022-08-01T07:31:19;99414.37;;;29.90;24.43
47592;BME280;33317;33.356;-117.184;2022-08-01T07:33:47;99416.81;;;29.61;24.50
47592;BME280;33317;33.356;-117.184;2022-08-01T07:36:16;99419.62;;;29.60;24.54
47592;BME280;33317;33.356;-117.184;2022-08-01T07:38:44;99418.59;;;29.88;24.58
47592;BME280;33317;33.356;-117.184;2022-08-01T07:41:13;99417.25;;;29.62;24.61
47592;BME280;33317;33.356;-117.184;2022-08-01T07:43:41;99417.57;;;29.88;24.62
47592;BME280;33317;33.356;-117.184;2022-08-01T07:46:09;99419.20;;;29.88;24.65
47592;BME280;33317;33.356;-117.184;2022-08-01T07:48:38;99413.31;;;29.64;24.69
47592;BME280;33317;33.356;-117.184;2022-08-01T07:51:07;99407.95;;;29.64;24.64
47592;BME280;33317;33.356;-117.184;2022-08-01T07:53:36;99402.10;;;29.90;24.61
47592;BME280;33317;33.356;-117.184;2022-08-01T07:56:04;99400.45;;;29.89;24.72
47592;BME280;33317;33.356;-117.184;2022-08-01T07:58:34;99402.18;;;29.89;24.59
47592;BME280;33317;33.356;-117.184;2022-08-01T08:01:03;99403.20;;;29.89;24.62
47592;BME280;33317;33.356;-117.184;2022-08-01T08:03:31;99402.04;;;29.87;24.78
47592;BME280;33317;33.356;-117.184;2022-08-01T08:05:59;99400.01;;;29.40;24.63
47592;BME280;33317;33.356;-117.184;2022-08-01T08:08:28;99400.34;;;29.90;24.61
47592;BME280;33317;33.356;-117.184;2022-08-01T08:10:56;99400.77;;;29.63;24.62
47592;BME280;33317;33.356;-117.184;2022-08-01T08:13:25;99402.84;;;29.91;24.68
47592;BME280;33317;33.356;-117.184;2022-08-01T08:15:53;99393.67;;;29.89;24.74
47592;BME280;33317;33.356;-117.184;2022-08-01T08:18:21;99392.46;;;29.90;24.78
47592;BME280;33317;33.356;-117.184;2022-08-01T08:20:50;99393.36;;;29.89;24.72
47592;BME280;33317;33.356;-117.184;2022-08-01T08:23:18;99382.89;;;29.88;24.81
47592;BME280;33317;33.356;-117.184;2022-08-01T08:25:47;99376.64;;;29.89;24.78
47592;BME280;33317;33.356;-117.184;2022-08-01T08:28:15;99377.14;;;29.89;24.89
47592;BME280;33317;33.356;-117.184;2022-08-01T08:30:44;99374.24;;;29.91;24.79
47592;BME280;33317;33.356;-117.184;2022-08-01T08:33:12;99367.95;;;29.63;24.83
47592;BME280;33317;33.356;-117.184;2022-08-01T08:35:41;99363.62;;;29.65;24.77
47592;BME280;33317;33.356;-117.184;2022-08-01T08:38:09;99361.43;;;29.93;24.87
47592;BME280;33317;33.356;-117.184;2022-08-01T08:40:39;99362.02;;;29.68;24.76
47592;BME280;33317;33.356;-117.184;2022-08-01T08:43:07;99358.73;;;29.94;24.83
47592;BME280;33317;33.356;-117.184;2022-08-01T08:45:35;99357.62;;;29.93;24.74
47592;BME280;33317;33.356;-117.184;2022-08-01T08:48:05;99353.42;;;29.91;24.92
47592;BME280;33317;33.356;-117.184;2022-08-01T08:50:34;99357.04;;;29.91;24.80
47592;BME280;33317;33.356;-117.184;2022-08-01T08:53:04;99357.47;;;29.63;24.86
47592;BME280;33317;33.356;-117.184;2022-08-01T08:55:32;99357.01;;;29.64;24.87
47592;BME280;33317;33.356;-117.184;2022-08-01T08:58:00;99358.78;;;29.90;24.87
47592;BME280;33317;33.356;-117.184;2022-08-01T09:00:30;99360.92;;;29.91;24.98
47592;BME280;33317;33.356;-117.184;2022-08-01T09:02:58;99361.92;;;29.64;24.93
47592;BME280;33317;33.356;-117.184;2022-08-01T09:05:26;99361.41;;;29.91;24.93
47592;BME280;33317;33.356;-117.184;2022-08-01T09:07:55;99355.05;;;29.91;24.90
47592;BME280;33317;33.356;-117.184;2022-08-01T09:10:24;99350.04;;;29.64;24.97
47592;BME280;33317;33.356;-117.184;2022-08-01T09:13:09;99343.52;;;29.89;24.98
47592;BME280;33317;33.356;-117.184;2022-08-01T09:15:41;99344.11;;;29.92;24.95
47592;BME280;33317;33.356;-117.184;2022-08-01T09:18:27;99343.18;;;29.93;24.99
47592;BME280;33317;33.356;-117.184;2022-08-01T09:21:09;99336.28;;;29.67;24.97
47592;BME280;33317;33.356;-117.184;2022-08-01T09:23:40;99326.84;;;29.68;24.92
47592;BME280;33317;33.356;-117.184;2022-08-01T09:26:09;99323.67;;;29.67;24.99
47592;BME280;33317;33.356;-117.184;2022-08-01T09:28:38;99322.74;;;29.92;24.99
47592;BME280;33317;33.356;-117.184;2022-08-01T09:31:09;99318.30;;;29.90;24.98
47592;BME280;33317;33.356;-117.184;2022-08-01T09:33:56;99314.30;;;29.88;25.05
47592;BME280;33317;33.356;-117.184;2022-08-01T09:36:25;99312.31;;;29.63;25.15
47592;BME280;33317;33.356;-117.184;2022-08-01T09:38:54;99308.60;;;29.90;25.00
47592;BME280;33317;33.356;-117.184;2022-08-01T09:41:30;99302.75;;;29.62;24.97
47592;BME280;33317;33.356;-117.184;2022-08-01T09:43:58;99298.45;;;29.62;25.06
47592;BME280;33317;33.356;-117.184;2022-08-01T09:46:27;99295.26;;;29.87;25.07
47592;BME280;33317;33.356;-117.184;2022-08-01T09:48:59;99298.67;;;29.86;25.09
47592;BME280;33317;33.356;-117.184;2022-08-01T09:51:31;99301.08;;;29.85;25.21
47592;BME280;33317;33.356;-117.184;2022-08-01T09:54:00;99296.39;;;29.55;25.14
47592;BME280;33317;33.356;-117.184;2022-08-01T09:56:36;99295.73;;;29.81;25.23
47592;BME280;33317;33.356;-117.184;2022-08-01T09:59:06;99296.57;;;29.80;25.28
47592;BME280;33317;33.356;-117.184;2022-08-01T10:01:50;99295.05;;;29.79;25.23
47592;BME280;33317;33.356;-117.184;2022-08-01T10:04:19;99291.60;;;29.53;25.18
47592;BME280;33317;33.356;-117.184;2022-08-01T10:06:50;99283.16;;;29.50;25.23
47592;BME280;33317;33.356;-117.184;2022-08-01T10:09:28;99276.07;;;29.74;25.33
47592;BME280;33317;33.356;-117.184;2022-08-01T10:11:57;99271.88;;;29.46;25.32
47592;BME280;33317;33.356;-117.184;2022-08-01T10:14:28;99275.17;;;29.73;25.33
47592;BME280;33317;33.356;-117.184;2022-08-01T10:16:59;99283.56;;;29.73;25.36
47592;BME280;33317;33.356;-117.184;2022-08-01T10:19:29;99286.30;;;29.73;25.39
47592;BME280;33317;33.356;-117.184;2022-08-01T10:21:58;99284.85;;;29.72;25.38
47592;BME280;33317;33.356;-117.184;2022-08-01T10:24:29;99278.37;;;29.70;25.45
47592;BME280;33317;33.356;-117.184;2022-08-01T10:27:01;99280.40;;;29.67;25.48
47592;BME280;33317;33.356;-117.184;2022-08-01T10:29:35;99284.17;;;29.37;25.42
47592;BME280;33317;33.356;-117.184;2022-08-01T10:32:05;99283.46;;;29.63;25.44
47592;BME280;33317;33.356;-117.184;2022-08-01T10:34:35;99282.17;;;29.85;25.42
47592;BME280;33317;33.356;-117.184;2022-08-01T10:37:04;99281.18;;;29.60;25.46
47592;BME280;33317;33.356;-117.184;2022-08-01T10:39:34;99279.43;;;30.02;25.45
47592;BME280;33317;33.356;-117.184;2022-08-01T10:42:04;99280.11;;;29.57;25.53
47592;BME280;33317;33.356;-117.184;2022-08-01T10:44:34;99276.60;;;29.30;25.48
47592;BME280;33317;33.356;-117.184;2022-08-01T10:47:06;99273.15;;;29.28;25.54
47592;BME280;33317;33.356;-117.184;2022-08-01T10:49:42;99268.28;;;29.55;25.56
47592;BME280;33317;33.356;-117.184;2022-08-01T10:52:15;99269.20;;;29.55;25.64
47592;BME280;33317;33.356;-117.184;2022-08-01T10:54:44;99270.25;;;29.54;25.60
47592;BME280;33317;33.356;-117.184;2022-08-01T10:57:13;99270.27;;;29.53;25.63
47592;BME280;33317;33.356;-117.184;2022-08-01T10:59:51;99268.22;;;29.54;25.68
47592;BME280;33317;33.356;-117.184;2022-08-01T11:02:27;99265.07;;;29.78;25.64
47592;BME280;33317;33.356;-117.184;2022-08-01T11:05:00;99259.65;;;29.57;25.65
47592;BME280;33317;33.356;-117.184;2022-08-01T11:07:42;99253.57;;;29.57;25.63
47592;BME280;33317;33.356;-117.184;2022-08-01T11:10:22;99246.36;;;29.59;25.65
47592;BME280;33317;33.356;-117.184;2022-08-01T11:12:52;99247.02;;;29.61;25.64
47592;BME280;33317;33.356;-117.184;2022-08-01T11:15:23;99248.06;;;29.60;25.64
47592;BME280;33317;33.356;-117.184;2022-08-01T11:17:52;99251.20;;;29.60;25.69
47592;BME280;33317;33.356;-117.184;2022-08-01T11:20:23;99248.55;;;29.33;25.74
47592;BME280;33317;33.356;-117.184;2022-08-01T11:23:26;99247.99;;;29.61;25.59
47592;BME280;33317;33.356;-117.184;2022-08-01T11:26:13;99248.22;;;29.64;25.54
47592;BME280;33317;33.356;-117.184;2022-08-01T11:28:44;99245.60;;;29.67;25.50
47592;BME280;33317;33.356;-117.184;2022-08-01T11:31:30;99241.29;;;30.10;25.61
47592;BME280;33317;33.356;-117.184;2022-08-01T11:33:59;99246.11;;;29.66;25.55
47592;BME280;33317;33.356;-117.184;2022-08-01T11:36:28;99242.53;;;29.65;25.53
47592;BME280;33317;33.356;-117.184;2022-08-01T11:39:14;99241.43;;;29.65;25.59
47592;BME280;33317;33.356;-117.184;2022-08-01T11:41:44;99237.97;;;29.41;25.58
47592;BME280;33317;33.356;-117.184;2022-08-01T11:44:15;99238.78;;;29.67;25.56
47592;BME280;33317;33.356;-117.184;2022-08-01T11:46:49;99245.70;;;29.67;25.77
47592;BME280;33317;33.356;-117.184;2022-08-01T11:49:32;99246.85;;;29.67;25.74
47592;BME280;33317;33.356;-117.184;2022-08-01T11:52:04;99246.53;;;29.71;25.76
47592;BME280;33317;33.356;-117.184;2022-08-01T11:54:35;99245.81;;;29.44;25.71
47592;BME280;33317;33.356;-117.184;2022-08-01T11:57:06;99248.05;;;29.70;25.68
47592;BME280;33317;33.356;-117.184;2022-08-01T11:59:40;99251.35;;;29.71;25.75
47592;BME280;33317;33.356;-117.184;2022-08-01T12:02:20;99250.30;;;29.44;25.79
47592;BME280;33317;33.356;-117.184;2022-08-01T12:04:53;99252.79;;;29.43;25.80
47592;BME280;33317;33.356;-117.184;2022-08-01T12:07:22;99249.15;;;29.41;25.86
47592;BME280;33317;33.356;-117.184;2022-08-01T12:09:59;99248.44;;;29.67;25.91
47592;BME280;33317;33.356;-117.184;2022-08-01T12:12:28;99247.66;;;29.66;25.86
47592;BME280;33317;33.356;-117.184;2022-08-01T12:14:59;99243.43;;;29.38;25.88
47592;BME280;33317;33.356;-117.184;2022-08-01T12:17:31;99238.45;;;29.36;25.92
47592;BME280;33317;33.356;-117.184;2022-08-01T12:20:00;99241.92;;;29.64;25.77
47592;BME280;33317;33.356;-117.184;2022-08-01T12:22:29;99242.06;;;29.63;25.89
47592;BME280;33317;33.356;-117.184;2022-08-01T12:25:06;99241.38;;;29.62;25.88
47592;BME280;33317;33.356;-117.184;2022-08-01T12:27:35;99238.01;;;29.61;25.85
47592;BME280;33317;33.356;-117.184;2022-08-01T12:30:06;99238.03;;;29.60;25.81
47592;BME280;33317;33.356;-117.184;2022-08-01T12:32:37;99236.38;;;29.34;25.86
47592;BME280;33317;33.356;-117.184;2022-08-01T12:35:08;99234.42;;;29.60;25.98
47592;BME280;33317;33.356;-117.184;2022-08-01T12:37:38;99230.54;;;29.59;25.96
47592;BME280;33317;33.356;-117.184;2022-08-01T12:40:17;99229.08;;;29.31;26.07
47592;BME280;33317;33.356;-117.184;2022-08-01T12:42:47;99237.04;;;29.58;26.03
47592;BME280;33317;33.356;-117.184;2022-08-01T12:45:18;99239.76;;;29.58;26.03
47592;BME280;33317;33.356;-117.184;2022-08-01T12:47:48;99242.23;;;29.55;25.76
47592;BME280;33317;33.356;-117.184;2022-08-01T12:50:20;99240.62;;;29.10;25.60
47592;BME280;33317;33.356;-117.184;2022-08-01T12:52:49;99241.89;;;29.11;25.61